sensor_id;sensor_type;location;lat;lon;timestamp;P1;durP1;ratioP1;P2;durP2;ratioP2
75993;SDS011;64680;53.800;9.988;2023-12-20T00:01:21;8.45;;;1.08;;
75993;SDS011;64680;53.800;9.988;2023-12-20T00:03:47;9.45;;;1.38;;
75993;SDS011;64680;53.800;9.988;2023-12-20T00:06:13;12.57;;;0.90;;
75993;SDS011;64680;53.800;9.988;2023-12-20T00:08:38;6.93;;;0.82;;
75993;SDS011;64680;53.800;9.988;2023-12-20T00:11:04;12.80;;;1.30;;
75993;SDS011;64680;53.800;9.988;2023-12-20T00:13:30;9.70;;;0.90;;
75993;SDS011;64680;53.800;9.988;2023-12-20T00:15:55;8.90;;;1.27;;
75993;SDS011;64680;53.800;9.988;2023-12-20T00:18:21;8.50;;;0.63;;
75993;SDS011;64680;53.800;9.988;2023-12-20T00:20:47;8.00;;;0.80;;
75993;SDS011;64680;53.800;9.988;2023-12-20T00:23:12;7.97;;;1.38;;
75993;SDS011;64680;53.800;9.988;2023-12-20T00:25:38;10.40;;;1.75;;
75993;SDS011;64680;53.800;9.988;2023-12-20T00:28:04;9.50;;;1.20;;
75993;SDS011;64680;53.800;9.988;2023-12-20T00:30:29;10.88;;;1.63;;
75993;SDS011;64680;53.800;9.988;2023-12-20T00:32:55;11.02;;;2.30;;
75993;SDS011;64680;53.800;9.988;2023-12-20T00:35:23;11.27;;;1.73;;
75993;SDS011;64680;53.800;9.988;2023-12-20T00:37:49;10.82;;;1.75;;
75993;SDS011;64680;53.800;9.988;2023-12-20T00:40:15;11.95;;;1.83;;
75993;SDS011;64680;53.800;9.988;2023-12-20T00:42:40;13.48;;;2.03;;
75993;SDS011;64680;53.800;9.988;2023-12-20T00:45:06;9.70;;;1.60;;
75993;SDS011;64680;53.800;9.988;2023-12-20T00:47:32;11.07;;;1.45;;
75993;SDS011;64680;53.800;9.988;2023-12-20T00:49:58;10.95;;;1.35;;
75993;SDS011;64680;53.800;9.988;2023-12-20T00:52:23;9.65;;;1.25;;
75993;SDS011;64680;53.800;9.988;2023-12-20T00:54:49;11.05;;;1.80;;
75993;SDS011;64680;53.800;9.988;2023-12-20T00:57:15;9.07;;;1.05;;
75993;SDS011;64680;53.800;9.988;2023-12-20T00:59:40;15.80;;;1.27;;
75993;SDS011;64680;53.800;9.988;2023-12-20T01:02:06;8.15;;;1.88;;
75993;SDS011;64680;53.800;9.988;2023-12-20T01:04:32;9.98;;;1.02;;
75993;SDS011;64680;53.800;9.988;2023-12-20T01:06:57;10.57;;;0.88;;
75993;SDS011;64680;53.800;9.988;2023-12-20T01:09:23;10.60;;;1.25;;
75993;SDS011;64680;53.800;9.988;2023-12-20T01:11:51;11.50;;;1.40;;
75993;SDS011;64680;53.800;9.988;2023-12-20T01:14:20;10.13;;;1.25;;
75993;SDS011;64680;53.800;9.988;2023-12-20T01:16:45;11.15;;;1.20;;
75993;SDS011;64680;53.800;9.988;2023-12-20T01:19:12;8.70;;;0.80;;
75993;SDS011;64680;53.800;9.988;2023-12-20T01:21:39;8.52;;;2.10;;
75993;SDS011;64680;53.800;9.988;2023-12-20T01:24:05;9.70;;;1.00;;
75993;SDS011;64680;53.800;9.988;2023-12-20T01:26:30;6.65;;;0.98;;
75993;SDS011;64680;53.800;9.988;2023-12-20T01:28:56;11.50;;;1.00;;
75993;SDS011;64680;53.800;9.988;2023-12-20T01:31:22;8.48;;;0.93;;
75993;SDS011;64680;53.800;9.988;2023-12-20T01:33:47;12.32;;;1.25;;
75993;SDS011;64680;53.800;9.988;2023-12-20T01:36:13;11.15;;;1.40;;
75993;SDS011;64680;53.800;9.988;2023-12-20T01:38:39;7.38;;;1.05;;
75993;SDS011;64680;53.800;9.988;2023-12-20T01:41:04;14.73;;;1.35;;
75993;SDS011;64680;53.800;9.988;2023-12-20T01:43:30;6.18;;;1.23;;
75993;SDS011;64680;53.800;9.988;2023-12-20T01:45:58;9.05;;;2.00;;
75993;SDS011;64680;53.800;9.988;2023-12-20T01:48:25;14.73;;;1.15;;
75993;SDS011;64680;53.800;9.988;2023-12-20T01:50:51;9.05;;;1.15;;
75993;SDS011;64680;53.800;9.988;2023-12-20T01:53:18;9.70;;;1.70;;
75993;SDS011;64680;53.800;9.988;2023-12-20T01:55:47;5.68;;;1.67;;
75993;SDS011;64680;53.800;9.988;2023-12-20T01:58:14;12.13;;;1.00;;
75993;SDS011;64680;53.800;9.988;2023-12-20T02:00:41;9.93;;;1.97;;
75993;SDS011;64680;53.800;9.988;2023-12-20T02:03:07;5.45;;;0.90;;
75993;SDS011;64680;53.800;9.988;2023-12-20T02:05:34;7.93;;;1.25;;
75993;SDS011;64680;53.800;9.988;2023-12-20T02:08:01;15.70;;;1.67;;
75993;SDS011;64680;53.800;9.988;2023-12-20T02:10:26;7.13;;;1.17;;
75993;SDS011;64680;53.800;9.988;2023-12-20T02:12:54;9.10;;;1.13;;
75993;SDS011;64680;53.800;9.988;2023-12-20T02:15:20;10.05;;;1.40;;
75993;SDS011;64680;53.800;9.988;2023-12-20T02:17:46;21.38;;;1.40;;
75993;SDS011;64680;53.800;9.988;2023-12-20T02:20:13;15.50;;;1.48;;
75993;SDS011;64680;53.800;9.988;2023-12-20T02:22:38;9.90;;;0.90;;
75993;SDS011;64680;53.800;9.988;2023-12-20T02:25:04;7.95;;;1.33;;
75993;SDS011;64680;53.800;9.988;2023-12-20T02:27:30;8.75;;;1.20;;
75993;SDS011;64680;53.800;9.988;2023-12-20T02:29:55;8.10;;;2.00;;
75993;SDS011;64680;53.800;9.988;2023-12-20T02:32:21;8.88;;;0.90;;
75993;SDS011;64680;53.800;9.988;2023-12-20T02:34:51;12.73;;;1.50;;
75993;SDS011;64680;53.800;9.988;2023-12-20T02:37:16;8.18;;;1.33;;
75993;SDS011;64680;53.800;9.988;2023-12-20T02:39:42;8.98;;;1.80;;
75993;SDS011;64680;53.800;9.988;2023-12-20T02:42:07;6.93;;;1.67;;
75993;SDS011;64680;53.800;9.988;2023-12-20T02:44:33;9.43;;;1.27;;
75993;SDS011;64680;53.800;9.988;2023-12-20T02:46:59;9.43;;;1.20;;
75993;SDS011;64680;53.800;9.988;2023-12-20T02:49:24;9.85;;;1.60;;
75993;SDS011;64680;53.800;9.988;2023-12-20T02:51:50;7.93;;;0.80;;
75993;SDS011;64680;53.800;9.988;2023-12-20T02:54:15;11.10;;;1.80;;
75993;SDS011;64680;53.800;9.988;2023-12-20T02:56:41;9.38;;;1.13;;
75993;SDS011;64680;53.800;9.988;2023-12-20T02:59:07;12.43;;;0.95;;
75993;SDS011;64680;53.800;9.988;2023-12-20T03:01:33;5.57;;;0.90;;
75993;SDS011;64680;53.800;9.988;2023-12-20T03:04:00;8.45;;;1.13;;
75993;SDS011;64680;53.800;9.988;2023-12-20T03:06:26;5.45;;;0.77;;
75993;SDS011;64680;53.800;9.988;2023-12-20T03:08:51;10.85;;;1.00;;
75993;SDS011;64680;53.800;9.988;2023-12-20T03:11:17;7.07;;;0.93;;
75993;SDS011;64680;53.800;9.988;2023-12-20T03:13:43;7.35;;;0.75;;
75993;SDS011;64680;53.800;9.988;2023-12-20T03:16:12;8.02;;;1.10;;
75993;SDS011;64680;53.800;9.988;2023-12-20T03:18:38;7.65;;;1.23;;
75993;SDS011;64680;53.800;9.988;2023-12-20T03:21:04;4.85;;;1.20;;
75993;SDS011;64680;53.800;9.988;2023-12-20T03:23:30;9.00;;;1.20;;
75993;SDS011;64680;53.800;9.988;2023-12-20T03:25:57;7.22;;;1.20;;
75993;SDS011;64680;53.800;9.988;2023-12-20T03:28:23;7.30;;;1.52;;
75993;SDS011;64680;53.800;9.988;2023-12-20T03:30:49;5.57;;;1.45;;
75993;SDS011;64680;53.800;9.988;2023-12-20T03:33:15;12.63;;;1.95;;
75993;SDS011;64680;53.800;9.988;2023-12-20T03:35:40;10.68;;;1.77;;
75993;SDS011;64680;53.800;9.988;2023-12-20T03:38:06;14.38;;;2.20;;
75993;SDS011;64680;53.800;9.988;2023-12-20T03:40:32;9.32;;;2.17;;
75993;SDS011;64680;53.800;9.988;2023-12-20T03:42:58;15.05;;;2.70;;
75993;SDS011;64680;53.800;9.988;2023-12-20T03:45:24;10.27;;;1.50;;
75993;SDS011;64680;53.800;9.988;2023-12-20T03:47:49;8.95;;;1.52;;
75993;SDS011;64680;53.800;9.988;2023-12-20T03:50:19;11.27;;;1.25;;
75993;SDS011;64680;53.800;9.988;2023-12-20T03:52:46;5.32;;;1.00;;
75993;SDS011;64680;53.800;9.988;2023-12-20T03:55:12;6.60;;;2.08;;
75993;SDS011;64680;53.800;9.988;2023-12-20T03:57:38;7.90;;;1.55;;
75993;SDS011;64680;53.800;9.988;2023-12-20T04:00:03;5.75;;;0.95;;
75993;SDS011;64680;53.800;9.988;2023-12-20T04:02:30;6.32;;;0.85;;
75993;SDS011;64680;53.800;9.988;2023-12-20T04:04:56;10.05;;;1.02;;
75993;SDS011;64680;53.800;9.988;2023-12-20T04:07:21;8.32;;;0.90;;
75993;SDS011;64680;53.800;9.988;2023-12-20T04:09:47;9.82;;;1.27;;
75993;SDS011;64680;53.800;9.988;2023-12-20T04:12:13;6.97;;;1.33;;
75993;SDS011;64680;53.800;9.988;2023-12-20T04:14:38;3.97;;;1.00;;
75993;SDS011;64680;53.800;9.988;2023-12-20T04:17:04;6.45;;;1.05;;
75993;SDS011;64680;53.800;9.988;2023-12-20T04:19:30;8.07;;;1.40;;
75993;SDS011;64680;53.800;9.988;2023-12-20T04:21:55;6.55;;;1.20;;
75993;SDS011;64680;53.800;9.988;2023-12-20T04:24:21;3.40;;;1.10;;
75993;SDS011;64680;53.800;9.988;2023-12-20T04:26:47;8.38;;;1.48;;
75993;SDS011;64680;53.800;9.988;2023-12-20T04:29:12;5.35;;;0.80;;
75993;SDS011;64680;53.800;9.988;2023-12-20T04:31:38;6.88;;;1.00;;
75993;SDS011;64680;53.800;9.988;2023-12-20T04:34:03;7.40;;;1.02;;
75993;SDS011;64680;53.800;9.988;2023-12-20T04:36:29;6.97;;;0.88;;
75993;SDS011;64680;53.800;9.988;2023-12-20T04:38:55;6.05;;;1.80;;
75993;SDS011;64680;53.800;9.988;2023-12-20T04:41:20;7.75;;;1.63;;
75993;SDS011;64680;53.800;9.988;2023-12-20T04:43:46;13.30;;;1.55;;
75993;SDS011;64680;53.800;9.988;2023-12-20T04:46:11;6.95;;;1.65;;
75993;SDS011;64680;53.800;9.988;2023-12-20T04:48:37;13.35;;;1.35;;
75993;SDS011;64680;53.800;9.988;2023-12-20T04:51:02;9.80;;;1.20;;
75993;SDS011;64680;53.800;9.988;2023-12-20T04:53:28;10.15;;;1.38;;
75993;SDS011;64680;53.800;9.988;2023-12-20T04:55:54;6.32;;;1.38;;
75993;SDS011;64680;53.800;9.988;2023-12-20T04:58:19;10.60;;;1.17;;
75993;SDS011;64680;53.800;9.988;2023-12-20T05:00:45;10.73;;;1.17;;
75993;SDS011;64680;53.800;9.988;2023-12-20T05:03:10;7.38;;;0.80;;
75993;SDS011;64680;53.800;9.988;2023-12-20T05:05:36;8.88;;;1.17;;
75993;SDS011;64680;53.800;9.988;2023-12-20T05:08:02;9.80;;;1.50;;
75993;SDS011;64680;53.800;9.988;2023-12-20T05:10:27;6.53;;;0.93;;
75993;SDS011;64680;53.800;9.988;2023-12-20T05:12:53;10.55;;;1.20;;
75993;SDS011;64680;53.800;9.988;2023-12-20T05:15:18;12.13;;;1.52;;
75993;SDS011;64680;53.800;9.988;2023-12-20T05:17:44;10.50;;;1.10;;
75993;SDS011;64680;53.800;9.988;2023-12-20T05:20:10;7.75;;;1.20;;
75993;SDS011;64680;53.800;9.988;2023-12-20T05:22:35;9.80;;;1.38;;
75993;SDS011;64680;53.800;9.988;2023-12-20T05:25:01;4.55;;;0.85;;
75993;SDS011;64680;53.800;9.988;2023-12-20T05:27:27;9.13;;;1.40;;
75993;SDS011;64680;53.800;9.988;2023-12-20T05:29:53;8.80;;;1.45;;
75993;SDS011;64680;53.800;9.988;2023-12-20T05:32:22;7.20;;;0.93;;
75993;SDS011;64680;53.800;9.988;2023-12-20T05:34:48;10.40;;;1.35;;
75993;SDS011;64680;53.800;9.988;2023-12-20T05:37:13;7.05;;;1.33;;
75993;SDS011;64680;53.800;9.988;2023-12-20T05:39:39;13.23;;;1.60;;
75993;SDS011;64680;53.800;9.988;2023-12-20T05:42:05;8.15;;;1.35;;
75993;SDS011;64680;53.800;9.988;2023-12-20T05:44:33;7.03;;;1.20;;
75993;SDS011;64680;53.800;9.988;2023-12-20T05:46:58;9.07;;;2.28;;
75993;SDS011;64680;53.800;9.988;2023-12-20T05:49:24;6.60;;;1.30;;
75993;SDS011;64680;53.800;9.988;2023-12-20T05:51:49;7.18;;;1.75;;
75993;SDS011;64680;53.800;9.988;2023-12-20T05:54:16;8.68;;;1.42;;
75993;SDS011;64680;53.800;9.988;2023-12-20T05:56:41;6.22;;;1.60;;
75993;SDS011;64680;53.800;9.988;2023-12-20T05:59:07;7.00;;;1.15;;
75993;SDS011;64680;53.800;9.988;2023-12-20T06:01:33;4.07;;;0.95;;
75993;SDS011;64680;53.800;9.988;2023-12-20T06:03:58;8.88;;;1.63;;
75993;SDS011;64680;53.800;9.988;2023-12-20T06:06:24;9.73;;;1.60;;
75993;SDS011;64680;53.800;9.988;2023-12-20T06:08:49;11.80;;;2.10;;
75993;SDS011;64680;53.800;9.988;2023-12-20T06:11:15;5.28;;;1.25;;
75993;SDS011;64680;53.800;9.988;2023-12-20T06:13:40;6.10;;;1.27;;
75993;SDS011;64680;53.800;9.988;2023-12-20T06:16:06;12.02;;;1.83;;
75993;SDS011;64680;53.800;9.988;2023-12-20T06:18:32;13.88;;;1.13;;
75993;SDS011;64680;53.800;9.988;2023-12-20T06:20:58;9.75;;;1.15;;
75993;SDS011;64680;53.800;9.988;2023-12-20T06:23:23;5.93;;;1.50;;
75993;SDS011;64680;53.800;9.988;2023-12-20T06:25:49;6.13;;;1.10;;
75993;SDS011;64680;53.800;9.988;2023-12-20T06:28:14;7.25;;;1.45;;
75993;SDS011;64680;53.800;9.988;2023-12-20T06:30:40;7.07;;;1.35;;
75993;SDS011;64680;53.800;9.988;2023-12-20T06:33:06;6.93;;;1.10;;
75993;SDS011;64680;53.800;9.988;2023-12-20T06:35:32;15.57;;;1.90;;
75993;SDS011;64680;53.800;9.988;2023-12-20T06:37:58;9.93;;;1.25;;
75993;SDS011;64680;53.800;9.988;2023-12-20T06:40:23;8.55;;;1.70;;
75993;SDS011;64680;53.800;9.988;2023-12-20T06:42:49;9.32;;;2.00;;
75993;SDS011;64680;53.800;9.988;2023-12-20T06:45:14;10.30;;;1.83;;
75993;SDS011;64680;53.800;9.988;2023-12-20T06:47:40;18.23;;;2.60;;
75993;SDS011;64680;53.800;9.988;2023-12-20T06:50:06;13.07;;;1.92;;
75993;SDS011;64680;53.800;9.988;2023-12-20T06:52:33;14.13;;;2.13;;
75993;SDS011;64680;53.800;9.988;2023-12-20T06:54:59;7.43;;;1.33;;
75993;SDS011;64680;53.800;9.988;2023-12-20T06:57:24;8.30;;;1.35;;
75993;SDS011;64680;53.800;9.988;2023-12-20T06:59:51;10.90;;;1.83;;
75993;SDS011;64680;53.800;9.988;2023-12-20T07:02:17;12.38;;;2.45;;
75993;SDS011;64680;53.800;9.988;2023-12-20T07:04:42;11.20;;;1.48;;
75993;SDS011;64680;53.800;9.988;2023-12-20T07:07:08;11.73;;;1.92;;
75993;SDS011;64680;53.800;9.988;2023-12-20T07:09:34;12.65;;;1.75;;
75993;SDS011;64680;53.800;9.988;2023-12-20T07:11:59;11.98;;;1.50;;
75993;SDS011;64680;53.800;9.988;2023-12-20T07:14:25;11.50;;;1.27;;
75993;SDS011;64680;53.800;9.988;2023-12-20T07:16:51;9.75;;;1.60;;
75993;SDS011;64680;53.800;9.988;2023-12-20T07:19:16;12.65;;;1.75;;
75993;SDS011;64680;53.800;9.988;2023-12-20T07:21:43;13.88;;;2.20;;
75993;SDS011;64680;53.800;9.988;2023-12-20T07:24:10;10.20;;;1.40;;
75993;SDS011;64680;53.800;9.988;2023-12-20T07:26:35;10.18;;;2.22;;
75993;SDS011;64680;53.800;9.988;2023-12-20T07:29:02;10.25;;;1.70;;
75993;SDS011;64680;53.800;9.988;2023-12-20T07:31:29;10.60;;;1.67;;
75993;SDS011;64680;53.800;9.988;2023-12-20T07:33:54;11.80;;;2.05;;
75993;SDS011;64680;53.800;9.988;2023-12-20T07:36:20;10.00;;;1.75;;
75993;SDS011;64680;53.800;9.988;2023-12-20T07:38:46;15.38;;;2.25;;
75993;SDS011;64680;53.800;9.988;2023-12-20T07:41:12;9.82;;;1.60;;
75993;SDS011;64680;53.800;9.988;2023-12-20T07:43:38;12.93;;;1.58;;
75993;SDS011;64680;53.800;9.988;2023-12-20T07:46:07;14.73;;;1.80;;
75993;SDS011;64680;53.800;9.988;2023-12-20T07:48:36;14.07;;;1.80;;
75993;SDS011;64680;53.800;9.988;2023-12-20T07:51:02;14.45;;;2.22;;
75993;SDS011;64680;53.800;9.988;2023-12-20T07:53:29;10.18;;;1.85;;
75993;SDS011;64680;53.800;9.988;2023-12-20T07:55:54;14.25;;;1.70;;
75993;SDS011;64680;53.800;9.988;2023-12-20T07:58:20;12.90;;;1.85;;
75993;SDS011;64680;53.800;9.988;2023-12-20T08:00:46;13.50;;;1.80;;
75993;SDS011;64680;53.800;9.988;2023-12-20T08:03:11;9.60;;;1.85;;
75993;SDS011;64680;53.800;9.988;2023-12-20T08:05:38;12.55;;;1.67;;
75993;SDS011;64680;53.800;9.988;2023-12-20T08:08:06;8.27;;;1.95;;
75993;SDS011;64680;53.800;9.988;2023-12-20T08:10:32;12.88;;;2.10;;
75993;SDS011;64680;53.800;9.988;2023-12-20T08:12:58;11.55;;;2.35;;
75993;SDS011;64680;53.800;9.988;2023-12-20T08:15:23;6.68;;;1.80;;
75993;SDS011;64680;53.800;9.988;2023-12-20T08:17:49;9.93;;;1.50;;
75993;SDS011;64680;53.800;9.988;2023-12-20T08:20:18;14.68;;;2.20;;
75993;SDS011;64680;53.800;9.988;2023-12-20T08:22:44;11.15;;;1.70;;
75993;SDS011;64680;53.800;9.988;2023-12-20T08:25:09;10.63;;;1.58;;
75993;SDS011;64680;53.800;9.988;2023-12-20T08:27:39;10.50;;;1.60;;
75993;SDS011;64680;53.800;9.988;2023-12-20T08:30:08;11.13;;;1.85;;
75993;SDS011;64680;53.800;9.988;2023-12-20T08:32:34;11.43;;;1.30;;
75993;SDS011;64680;53.800;9.988;2023-12-20T08:35:00;14.00;;;2.00;;
75993;SDS011;64680;53.800;9.988;2023-12-20T08:37:25;10.48;;;1.30;;
75993;SDS011;64680;53.800;9.988;2023-12-20T08:39:55;7.35;;;1.08;;
75993;SDS011;64680;53.800;9.988;2023-12-20T08:42:21;12.27;;;1.40;;
75993;SDS011;64680;53.800;9.988;2023-12-20T08:44:46;6.30;;;1.50;;
75993;SDS011;64680;53.800;9.988;2023-12-20T08:47:12;14.43;;;1.70;;
75993;SDS011;64680;53.800;9.988;2023-12-20T08:49:40;13.32;;;1.40;;
75993;SDS011;64680;53.800;9.988;2023-12-20T08:52:06;11.27;;;1.75;;
75993;SDS011;64680;53.800;9.988;2023-12-20T08:54:32;8.23;;;1.55;;
75993;SDS011;64680;53.800;9.988;2023-12-20T08:56:57;8.57;;;1.30;;
75993;SDS011;64680;53.800;9.988;2023-12-20T08:59:23;10.98;;;2.00;;
75993;SDS011;64680;53.800;9.988;2023-12-20T09:01:48;5.50;;;0.82;;
75993;SDS011;64680;53.800;9.988;2023-12-20T09:04:19;2.78;;;0.68;;
75993;SDS011;64680;53.800;9.988;2023-12-20T09:06:45;2.92;;;0.45;;
75993;SDS011;64680;53.800;9.988;2023-12-20T09:09:10;7.45;;;0.82;;
75993;SDS011;64680;53.800;9.988;2023-12-20T09:11:38;2.13;;;0.68;;
75993;SDS011;64680;53.800;9.988;2023-12-20T09:14:04;2.90;;;0.20;;
75993;SDS011;64680;53.800;9.988;2023-12-20T09:16:29;1.92;;;0.28;;
75993;SDS011;64680;53.800;9.988;2023-12-20T09:18:56;1.65;;;0.38;;
75993;SDS011;64680;53.800;9.988;2023-12-20T09:21:22;3.40;;;0.15;;
75993;SDS011;64680;53.800;9.988;2023-12-20T09:23:48;2.17;;;0.20;;
75993;SDS011;64680;53.800;9.988;2023-12-20T09:26:13;0.35;;;0.10;;
75993;SDS011;64680;53.800;9.988;2023-12-20T09:28:39;0.82;;;0.05;;
75993;SDS011;64680;53.800;9.988;2023-12-20T09:31:05;1.17;;;0.22;;
75993;SDS011;64680;53.800;9.988;2023-12-20T09:33:31;0.75;;;0.20;;
75993;SDS011;64680;53.800;9.988;2023-12-20T09:35:57;1.40;;;0.30;;
75993;SDS011;64680;53.800;9.988;2023-12-20T09:38:23;0.88;;;0.30;;
75993;SDS011;64680;53.800;9.988;2023-12-20T09:40:49;3.10;;;0.13;;
75993;SDS011;64680;53.800;9.988;2023-12-20T09:43:15;1.85;;;0.10;;
75993;SDS011;64680;53.800;9.988;2023-12-20T09:45:45;1.17;;;0.13;;
75993;SDS011;64680;53.800;9.988;2023-12-20T09:48:12;1.05;;;0.03;;
75993;SDS011;64680;53.800;9.988;2023-12-20T09:50:39;2.60;;;0.15;;
75993;SDS011;64680;53.800;9.988;2023-12-20T09:53:05;3.92;;;0.30;;
75993;SDS011;64680;53.800;9.988;2023-12-20T09:55:34;2.20;;;0.17;;
75993;SDS011;64680;53.800;9.988;2023-12-20T09:58:01;2.90;;;0.30;;
75993;SDS011;64680;53.800;9.988;2023-12-20T10:00:27;2.03;;;0.30;;
75993;SDS011;64680;53.800;9.988;2023-12-20T10:05:25;5.28;;;0.32;;
75993;SDS011;64680;53.800;9.988;2023-12-20T10:07:59;3.65;;;0.30;;
75993;SDS011;64680;53.800;9.988;2023-12-20T10:10:26;3.83;;;0.32;;
75993;SDS011;64680;53.800;9.988;2023-12-20T10:13:01;2.53;;;0.20;;
75993;SDS011;64680;53.800;9.988;2023-12-20T10:15:27;3.58;;;0.40;;
75993;SDS011;64680;53.800;9.988;2023-12-20T10:17:53;3.78;;;0.52;;
75993;SDS011;64680;53.800;9.988;2023-12-20T10:20:19;2.05;;;0.95;;
75993;SDS011;64680;53.800;9.988;2023-12-20T10:22:45;3.25;;;0.40;;
75993;SDS011;64680;53.800;9.988;2023-12-20T10:25:11;5.68;;;1.38;;
75993;SDS011;64680;53.800;9.988;2023-12-20T10:27:37;3.13;;;0.40;;
75993;SDS011;64680;53.800;9.988;2023-12-20T10:30:03;5.20;;;0.98;;
75993;SDS011;64680;53.800;9.988;2023-12-20T10:32:29;2.80;;;0.40;;
75993;SDS011;64680;53.800;9.988;2023-12-20T10:34:56;6.10;;;1.02;;
75993;SDS011;64680;53.800;9.988;2023-12-20T10:37:22;2.90;;;0.55;;
75993;SDS011;64680;53.800;9.988;2023-12-20T10:39:50;8.30;;;1.30;;
75993;SDS011;64680;53.800;9.988;2023-12-20T10:42:17;3.38;;;0.75;;
75993;SDS011;64680;53.800;9.988;2023-12-20T10:44:46;5.47;;;0.70;;
75993;SDS011;64680;53.800;9.988;2023-12-20T10:47:13;7.65;;;1.45;;
75993;SDS011;64680;53.800;9.988;2023-12-20T10:49:38;2.90;;;0.70;;
75993;SDS011;64680;53.800;9.988;2023-12-20T10:52:05;5.38;;;1.23;;
75993;SDS011;64680;53.800;9.988;2023-12-20T10:54:31;3.35;;;0.45;;
75993;SDS011;64680;53.800;9.988;2023-12-20T10:56:58;3.58;;;0.50;;
75993;SDS011;64680;53.800;9.988;2023-12-20T10:59:25;6.70;;;1.27;;
75993;SDS011;64680;53.800;9.988;2023-12-20T11:01:54;2.20;;;0.38;;
75993;SDS011;64680;53.800;9.988;2023-12-20T11:04:23;4.75;;;0.38;;
75993;SDS011;64680;53.800;9.988;2023-12-20T11:06:55;5.75;;;0.50;;
75993;SDS011;64680;53.800;9.988;2023-12-20T11:09:38;4.63;;;0.60;;
75993;SDS011;64680;53.800;9.988;2023-12-20T11:17:14;3.80;;;0.45;;
75993;SDS011;64680;53.800;9.988;2023-12-20T11:22:26;7.85;;;0.43;;
75993;SDS011;64680;53.800;9.988;2023-12-20T11:24:54;5.78;;;0.60;;
75993;SDS011;64680;53.800;9.988;2023-12-20T11:27:27;5.85;;;0.75;;
75993;SDS011;64680;53.800;9.988;2023-12-20T11:29:53;5.65;;;0.70;;
75993;SDS011;64680;53.800;9.988;2023-12-20T11:37:37;3.90;;;0.65;;
75993;SDS011;64680;53.800;9.988;2023-12-20T11:40:08;6.95;;;0.82;;
75993;SDS011;64680;53.800;9.988;2023-12-20T11:42:50;10.80;;;0.65;;
75993;SDS011;64680;53.800;9.988;2023-12-20T11:45:17;3.72;;;0.55;;
75993;SDS011;64680;53.800;9.988;2023-12-20T11:47:48;7.28;;;0.70;;
75993;SDS011;64680;53.800;9.988;2023-12-20T11:50:19;7.25;;;1.50;;
75993;SDS011;64680;53.800;9.988;2023-12-20T11:52:46;6.18;;;1.55;;
75993;SDS011;64680;53.800;9.988;2023-12-20T11:55:13;6.40;;;0.80;;
75993;SDS011;64680;53.800;9.988;2023-12-20T11:57:39;15.60;;;1.95;;
75993;SDS011;64680;53.800;9.988;2023-12-20T12:00:05;8.38;;;0.93;;
75993;SDS011;64680;53.800;9.988;2023-12-20T12:02:31;5.95;;;0.90;;
75993;SDS011;64680;53.800;9.988;2023-12-20T12:04:57;11.00;;;1.25;;
75993;SDS011;64680;53.800;9.988;2023-12-20T12:07:23;10.30;;;1.77;;
75993;SDS011;64680;53.800;9.988;2023-12-20T12:09:49;6.72;;;0.95;;
75993;SDS011;64680;53.800;9.988;2023-12-20T12:12:15;12.98;;;1.40;;
75993;SDS011;64680;53.800;9.988;2023-12-20T12:14:41;7.40;;;1.42;;
75993;SDS011;64680;53.800;9.988;2023-12-20T12:17:10;10.50;;;2.28;;
75993;SDS011;64680;53.800;9.988;2023-12-20T12:19:40;13.95;;;1.50;;
75993;SDS011;64680;53.800;9.988;2023-12-20T12:22:10;8.93;;;1.75;;
75993;SDS011;64680;53.800;9.988;2023-12-20T12:24:44;14.65;;;1.90;;
75993;SDS011;64680;53.800;9.988;2023-12-20T12:27:12;7.63;;;1.40;;
75993;SDS011;64680;53.800;9.988;2023-12-20T12:29:38;14.70;;;1.65;;
75993;SDS011;64680;53.800;9.988;2023-12-20T12:32:04;14.45;;;1.52;;
75993;SDS011;64680;53.800;9.988;2023-12-20T12:34:32;10.95;;;1.52;;
75993;SDS011;64680;53.800;9.988;2023-12-20T12:36:59;11.65;;;1.58;;
75993;SDS011;64680;53.800;9.988;2023-12-20T12:39:24;16.88;;;2.08;;
75993;SDS011;64680;53.800;9.988;2023-12-20T12:41:50;14.20;;;1.70;;
75993;SDS011;64680;53.800;9.988;2023-12-20T12:44:16;17.13;;;1.63;;
75993;SDS011;64680;53.800;9.988;2023-12-20T12:46:43;10.63;;;1.50;;
75993;SDS011;64680;53.800;9.988;2023-12-20T12:49:11;11.20;;;1.63;;
75993;SDS011;64680;53.800;9.988;2023-12-20T12:51:37;13.30;;;1.52;;
75993;SDS011;64680;53.800;9.988;2023-12-20T12:54:02;13.27;;;1.40;;
75993;SDS011;64680;53.800;9.988;2023-12-20T12:56:28;11.32;;;1.65;;
75993;SDS011;64680;53.800;9.988;2023-12-20T12:58:54;16.98;;;1.40;;
75993;SDS011;64680;53.800;9.988;2023-12-20T13:01:20;10.35;;;1.63;;
75993;SDS011;64680;53.800;9.988;2023-12-20T13:03:48;9.85;;;1.50;;
75993;SDS011;64680;53.800;9.988;2023-12-20T13:06:14;15.90;;;1.85;;
75993;SDS011;64680;53.800;9.988;2023-12-20T13:08:39;14.50;;;1.65;;
75993;SDS011;64680;53.800;9.988;2023-12-20T13:11:05;17.50;;;2.45;;
75993;SDS011;64680;53.800;9.988;2023-12-20T13:13:30;12.48;;;2.08;;
75993;SDS011;64680;53.800;9.988;2023-12-20T13:15:56;9.50;;;2.00;;
75993;SDS011;64680;53.800;9.988;2023-12-20T13:18:22;8.98;;;1.40;;
75993;SDS011;64680;53.800;9.988;2023-12-20T13:20:48;9.70;;;1.55;;
75993;SDS011;64680;53.800;9.988;2023-12-20T13:23:14;20.77;;;2.22;;
75993;SDS011;64680;53.800;9.988;2023-12-20T13:25:40;11.60;;;1.98;;
75993;SDS011;64680;53.800;9.988;2023-12-20T13:28:10;15.30;;;1.88;;
75993;SDS011;64680;53.800;9.988;2023-12-20T13:30:37;13.77;;;2.00;;
75993;SDS011;64680;53.800;9.988;2023-12-20T13:33:03;12.43;;;2.33;;
75993;SDS011;64680;53.800;9.988;2023-12-20T13:35:30;12.88;;;2.65;;
75993;SDS011;64680;53.800;9.988;2023-12-20T13:37:56;10.80;;;2.47;;
75993;SDS011;64680;53.800;9.988;2023-12-20T13:40:22;13.48;;;2.80;;
75993;SDS011;64680;53.800;9.988;2023-12-20T13:42:48;8.75;;;1.70;;
75993;SDS011;64680;53.800;9.988;2023-12-20T13:45:14;11.20;;;1.83;;
75993;SDS011;64680;53.800;9.988;2023-12-20T13:47:39;11.18;;;1.52;;
75993;SDS011;64680;53.800;9.988;2023-12-20T13:50:05;8.38;;;1.58;;
75993;SDS011;64680;53.800;9.988;2023-12-20T13:52:31;18.58;;;2.33;;
75993;SDS011;64680;53.800;9.988;2023-12-20T13:54:56;13.65;;;2.22;;
75993;SDS011;64680;53.800;9.988;2023-12-20T13:57:22;11.50;;;2.17;;
75993;SDS011;64680;53.800;9.988;2023-12-20T13:59:47;27.42;;;2.88;;
75993;SDS011;64680;53.800;9.988;2023-12-20T14:02:13;11.95;;;2.47;;
75993;SDS011;64680;53.800;9.988;2023-12-20T14:04:39;11.65;;;2.67;;
75993;SDS011;64680;53.800;9.988;2023-12-20T14:07:04;11.32;;;2.38;;
75993;SDS011;64680;53.800;9.988;2023-12-20T14:09:32;11.48;;;2.42;;
75993;SDS011;64680;53.800;9.988;2023-12-20T14:11:58;7.72;;;2.35;;
75993;SDS011;64680;53.800;9.988;2023-12-20T14:14:24;10.02;;;2.25;;
75993;SDS011;64680;53.800;9.988;2023-12-20T14:16:50;9.85;;;2.63;;
75993;SDS011;64680;53.800;9.988;2023-12-20T14:19:16;14.07;;;2.53;;
75993;SDS011;64680;53.800;9.988;2023-12-20T14:21:42;13.57;;;2.22;;
75993;SDS011;64680;53.800;9.988;2023-12-20T14:24:10;12.77;;;2.28;;
75993;SDS011;64680;53.800;9.988;2023-12-20T14:26:40;10.20;;;2.30;;
75993;SDS011;64680;53.800;9.988;2023-12-20T14:29:05;13.18;;;2.08;;
75993;SDS011;64680;53.800;9.988;2023-12-20T14:31:32;15.48;;;2.97;;
75993;SDS011;64680;53.800;9.988;2023-12-20T14:33:58;7.22;;;2.13;;
75993;SDS011;64680;53.800;9.988;2023-12-20T14:36:24;10.20;;;1.85;;
75993;SDS011;64680;53.800;9.988;2023-12-20T14:38:49;9.63;;;2.90;;
75993;SDS011;64680;53.800;9.988;2023-12-20T14:41:15;12.70;;;2.08;;
75993;SDS011;64680;53.800;9.988;2023-12-20T14:43:43;8.00;;;1.83;;
75993;SDS011;64680;53.800;9.988;2023-12-20T14:46:08;7.78;;;2.58;;
75993;SDS011;64680;53.800;9.988;2023-12-20T14:48:34;13.40;;;2.80;;
75993;SDS011;64680;53.800;9.988;2023-12-20T14:51:00;15.13;;;2.63;;
75993;SDS011;64680;53.800;9.988;2023-12-20T14:53:26;12.50;;;2.17;;